sensor_id;sensor_type;location;lat;lon;timestamp;pressure;altitude;pressure_sealevel;temperature;humidity
8523;BME280;4299;42.202;24.736;2023-02-13T00:02:17;101556.38;;;4.60;92.32
8523;BME280;4299;42.202;24.736;2023-02-13T00:04:44;101558.97;;;4.61;93.20
8523;BME280;4299;42.202;24.736;2023-02-13T00:07:11;101561.63;;;4.63;93.14
8523;BME280;4299;42.202;24.736;2023-02-13T00:09:38;101563.38;;;4.64;92.71
8523;BME280;4299;42.202;24.736;2023-02-13T00:12:07;101563.38;;;4.64;92.22
8523;BME280;4299;42.202;24.736;2023-02-13T00:14:34;101565.13;;;4.57;93.03
8523;BME280;4299;42.202;24.736;2023-02-13T00:17:01;101566.00;;;4.59;93.18
8523;BME280;4299;42.202;24.736;2023-02-13T00:19:28;101567.75;;;4.59;93.91
8523;BME280;4299;42.202;24.736;2023-02-13T00:21:54;101576.50;;;4.58;94.08
8523;BME280;4299;42.202;24.736;2023-02-13T00:24:21;101568.63;;;4.61;93.99
8523;BME280;4299;42.202;24.736;2023-02-13T00:26:48;101581.75;;;4.59;93.10
8523;BME280;4299;42.202;24.736;2023-02-13T00:29:17;101577.38;;;4.63;93.48
8523;BME280;4299;42.202;24.736;2023-02-13T00:31:43;101575.63;;;4.65;93.23
8523;BME280;4299;42.202;24.736;2023-02-13T00:34:10;101568.59;;;4.55;93.78
8523;BME280;4299;42.202;24.736;2023-02-13T00:36:37;101574.72;;;4.49;94.15
8523;BME280;4299;42.202;24.736;2023-02-13T00:39:03;101573.84;;;4.44;94.67
8523;BME280;4299;42.202;24.736;2023-02-13T00:41:30;101575.59;;;4.50;94.41
8523;BME280;4299;42.202;24.736;2023-02-13T00:43:57;101573.84;;;4.55;94.59
8523;BME280;4299;42.202;24.736;2023-02-13T00:46:25;101576.50;;;4.59;93.99
8523;BME280;4299;42.202;24.736;2023-02-13T00:48:52;101574.78;;;4.60;94.45
8523;BME280;4299;42.202;24.736;2023-02-13T00:51:18;101580.00;;;4.63;95.21
8523;BME280;4299;42.202;24.736;2023-02-13T00:53:45;101572.13;;;4.63;94.88
8523;BME280;4299;42.202;24.736;2023-02-13T00:56:12;101574.78;;;4.60;94.97
8523;BME280;4299;42.202;24.736;2023-02-13T00:58:38;101576.47;;;4.53;94.49
8523;BME280;4299;42.202;24.736;2023-02-13T01:01:05;101576.50;;;4.52;95.02
8523;BME280;4299;42.202;24.736;2023-02-13T01:03:33;101584.38;;;4.56;95.50
8523;BME280;4299;42.202;24.736;2023-02-13T01:06:00;101590.50;;;4.52;96.77
8523;BME280;4299;42.202;24.736;2023-02-13T01:08:27;101586.97;;;4.35;97.46
8523;BME280;4299;42.202;24.736;2023-02-13T01:10:54;101580.72;;;4.10;100.00
8523;BME280;4299;42.202;24.736;2023-02-13T01:13:21;101584.13;;;3.88;100.00
8523;BME280;4299;42.202;24.736;2023-02-13T01:15:49;101578.97;;;4.00;100.00
8523;BME280;4299;42.202;24.736;2023-02-13T01:18:18;101586.84;;;4.02;100.00
8523;BME280;4299;42.202;24.736;2023-02-13T01:20:55;101578.94;;;3.99;100.00
8523;BME280;4299;42.202;24.736;2023-02-13T01:23:22;101575.31;;;3.74;100.00
8523;BME280;4299;42.202;24.736;2023-02-13T01:25:49;101577.94;;;3.65;100.00
8523;BME280;4299;42.202;24.736;2023-02-13T01:28:16;101589.28;;;3.64;100.00
8523;BME280;4299;42.202;24.736;2023-02-13T01:30:43;101580.56;;;3.65;100.00
8523;BME280;4299;42.202;24.736;2023-02-13T01:33:12;101582.25;;;3.60;100.00
8523;BME280;4299;42.202;24.736;2023-02-13T01:35:39;101591.78;;;3.45;100.00
8523;BME280;4299;42.202;24.736;2023-02-13T01:38:08;101595.16;;;3.26;100.00
8523;BME280;4299;42.202;24.736;2023-02-13T01:40:34;101601.13;;;3.10;100.00
8523;BME280;4299;42.202;24.736;2023-02-13T01:43:01;101588.88;;;3.09;100.00
8523;BME280;4299;42.202;24.736;2023-02-13T01:45:29;101601.09;;;3.07;100.00
8523;BME280;4299;42.202;24.736;2023-02-13T01:47:59;101608.91;;;2.98;100.00
8523;BME280;4299;42.202;24.736;2023-02-13T01:50:33;101602.56;;;2.74;100.00
8523;BME280;4299;42.202;24.736;2023-02-13T01:53:07;101606.72;;;2.54;100.00
8523;BME280;4299;42.202;24.736;2023-02-13T01:55:40;101607.44;;;2.40;100.00
8523;BME280;4299;42.202;24.736;2023-02-13T01:58:11;101602.13;;;2.35;100.00
8523;BME280;4299;42.202;24.736;2023-02-13T02:00:44;101608.97;;;2.21;100.00
8523;BME280;4299;42.202;24.736;2023-02-13T02:03:16;101610.50;;;2.02;100.00
8523;BME280;4299;42.202;24.736;2023-02-13T02:05:44;101606.84;;;1.89;100.00
8523;BME280;4299;42.202;24.736;2023-02-13T02:08:14;101609.31;;;1.80;100.00
8523;BME280;4299;42.202;24.736;2023-02-13T02:10:41;101603.97;;;1.71;100.00
8523;BME280;4299;42.202;24.736;2023-02-13T02:13:10;101612.69;;;1.72;100.00
8523;BME280;4299;42.202;24.736;2023-02-13T02:15:38;101615.19;;;1.64;100.00
8523;BME280;4299;42.202;24.736;2023-02-13T02:18:08;101616.78;;;1.53;100.00
8523;BME280;4299;42.202;24.736;2023-02-13T02:21:01;101623.66;;;1.48;100.00
8523;BME280;4299;42.202;24.736;2023-02-13T02:23:50;101628.63;;;1.30;100.00
8523;BME280;4299;42.202;24.736;2023-02-13T02:26:47;101633.69;;;1.21;100.00
8523;BME280;4299;42.202;24.736;2023-02-13T02:29:47;101637.06;;;1.13;100.00
8523;BME280;4299;42.202;24.736;2023-02-13T02:32:31;101629.97;;;1.06;100.00
8523;BME280;4299;42.202;24.736;2023-02-13T02:35:08;101635.03;;;0.97;100.00
8523;BME280;4299;42.202;24.736;2023-02-13T02:37:55;101639.28;;;0.91;100.00
8523;BME280;4299;42.202;24.736;2023-02-13T02:40:32;101641.84;;;0.89;100.00
8523;BME280;4299;42.202;24.736;2023-02-13T02:43:13;101654.16;;;0.96;100.00
8523;BME280;4299;42.202;24.736;2023-02-13T02:45:51;101654.06;;;0.90;100.00
8523;BME280;4299;42.202;24.736;2023-02-13T02:48:25;101657.50;;;0.86;100.00
8523;BME280;4299;42.202;24.736;2023-02-13T02:51:18;101653.56;;;0.63;100.00
8523;BME280;4299;42.202;24.736;2023-02-13T02:53:52;101654.34;;;0.57;100.00
8523;BME280;4299;42.202;24.736;2023-02-13T02:56:25;101649.81;;;0.49;100.00
8523;BME280;4299;42.202;24.736;2023-02-13T02:58:56;101656.97;;;0.59;100.00
8523;BME280;4299;42.202;24.736;2023-02-13T03:01:43;101646.59;;;0.62;100.00
8523;BME280;4299;42.202;24.736;2023-02-13T03:04:32;101643.03;;;0.57;100.00
8523;BME280;4299;42.202;24.736;2023-02-13T03:07:19;101654.31;;;0.56;100.00
8523;BME280;4299;42.202;24.736;2023-02-13T03:09:48;101656.84;;;0.53;100.00
8523;BME280;4299;42.202;24.736;2023-02-13T03:12:37;101648.97;;;0.51;100.00
8523;BME280;4299;42.202;24.736;2023-02-13T03:15:25;101644.59;;;0.49;100.00
8523;BME280;4299;42.202;24.736;2023-02-13T03:17:53;101656.84;;;0.53;100.00
8523;BME280;4299;42.202;24.736;2023-02-13T03:20:45;101658.69;;;0.57;100.00
8523;BME280;4299;42.202;24.736;2023-02-13T03:23:38;101662.16;;;0.59;100.00
8523;BME280;4299;42.202;24.736;2023-02-13T03:26:31;101662.06;;;0.53;100.00
8523;BME280;4299;42.202;24.736;2023-02-13T03:29:20;101669.88;;;0.09;100.00
8523;BME280;4299;42.202;24.736;2023-02-13T03:32:25;101672.13;;;-0.06;100.00
8523;BME280;4299;42.202;24.736;2023-02-13T03:35:00;101678.34;;;-0.01;100.00
8523;BME280;4299;42.202;24.736;2023-02-13T03:37:54;101680.13;;;0.02;100.00
8523;BME280;4299;42.202;24.736;2023-02-13T03:40:30;101674.75;;;-0.06;100.00
8523;BME280;4299;42.202;24.736;2023-02-13T03:43:07;101668.34;;;-0.20;100.00
8523;BME280;4299;42.202;24.736;2023-02-13T03:45:38;101665.88;;;-0.14;100.00
8523;BME280;4299;42.202;24.736;2023-02-13T03:48:21;101669.50;;;-0.09;100.00
8523;BME280;4299;42.202;24.736;2023-02-13T03:51:07;101667.72;;;-0.10;100.00
8523;BME280;4299;42.202;24.736;2023-02-13T03:53:37;101673.69;;;-0.14;100.00
8523;BME280;4299;42.202;24.736;2023-02-13T03:56:07;101678.59;;;-0.28;100.00
8523;BME280;4299;42.202;24.736;2023-02-13T03:58:53;101672.28;;;-0.39;100.00
8523;BME280;4299;42.202;24.736;2023-02-13T04:01:45;101675.69;;;-0.42;100.00
8523;BME280;4299;42.202;24.736;2023-02-13T04:04:20;101680.84;;;-0.45;100.00
8523;BME280;4299;42.202;24.736;2023-02-13T04:06:51;101677.22;;;-0.50;100.00
8523;BME280;4299;42.202;24.736;2023-02-13T04:09:23;101675.25;;;-0.60;100.00
8523;BME280;4299;42.202;24.736;2023-02-13T04:11:55;101680.38;;;-0.63;100.00
8523;BME280;4299;42.202;24.736;2023-02-13T04:14:24;101674.94;;;-0.72;100.00
8523;BME280;4299;42.202;24.736;2023-02-13T04:16:56;101688.09;;;-0.67;100.00
8523;BME280;4299;42.202;24.736;2023-02-13T04:19:27;101690.44;;;-0.78;100.00
8523;BME280;4299;42.202;24.736;2023-02-13T04:21:56;101680.88;;;-0.77;100.00
8523;BME280;4299;42.202;24.736;2023-02-13T04:24:24;101682.88;;;-0.67;100.00
8523;BME280;4299;42.202;24.736;2023-02-13T04:26:51;101690.94;;;-0.57;100.00
8523;BME280;4299;42.202;24.736;2023-02-13T04:29:19;101680.84;;;-0.45;100.00
8523;BME280;4299;42.202;24.736;2023-02-13T04:31:47;101672.09;;;-0.47;100.00
8523;BME280;4299;42.202;24.736;2023-02-13T04:34:13;101687.78;;;-0.44;100.00
8523;BME280;4299;42.202;24.736;2023-02-13T04:36:40;101673.72;;;-0.52;100.00
8523;BME280;4299;42.202;24.736;2023-02-13T04:39:07;101673.72;;;-0.52;100.00
8523;BME280;4299;42.202;24.736;2023-02-13T04:41:35;101679.00;;;-0.49;100.00
8523;BME280;4299;42.202;24.736;2023-02-13T04:44:02;101671.19;;;-0.49;100.00
8523;BME280;4299;42.202;24.736;2023-02-13T04:46:29;101687.72;;;-0.47;100.00
8523;BME280;4299;42.202;24.736;2023-02-13T04:48:55;101693.78;;;-0.48;100.00
8523;BME280;4299;42.202;24.736;2023-02-13T04:51:22;101698.06;;;-0.50;100.00
8523;BME280;4299;42.202;24.736;2023-02-13T04:53:49;101698.00;;;-0.53;100.00
8523;BME280;4299;42.202;24.736;2023-02-13T04:56:16;101689.28;;;-0.55;100.00
8523;BME280;4299;42.202;24.736;2023-02-13T04:58:44;101685.69;;;-0.60;100.00
8523;BME280;4299;42.202;24.736;2023-02-13T05:01:11;101693.44;;;-0.61;100.00
8523;BME280;4299;42.202;24.736;2023-02-13T05:03:38;101687.22;;;-0.68;100.00
8523;BME280;4299;42.202;24.736;2023-02-13T05:06:05;101683.59;;;-0.73;100.00
8523;BME280;4299;42.202;24.736;2023-02-13T05:08:32;101686.16;;;-0.76;100.00
8523;BME280;4299;42.202;24.736;2023-02-13T05:10:58;101692.19;;;-0.77;100.00
8523;BME280;4299;42.202;24.736;2023-02-13T05:13:25;101695.72;;;-0.75;100.00
8523;BME280;4299;42.202;24.736;2023-02-13T05:15:53;101695.78;;;-0.72;100.00
8523;BME280;4299;42.202;24.736;2023-02-13T05:18:20;101699.22;;;-0.73;100.00
8523;BME280;4299;42.202;24.736;2023-02-13T05:20:46;101703.56;;;-0.73;100.00
8523;BME280;4299;42.202;24.736;2023-02-13T05:23:34;101708.47;;;-0.86;100.00
8523;BME280;4299;42.202;24.736;2023-02-13T05:25:59;101710.94;;;-0.90;100.00
8523;BME280;4299;42.202;24.736;2023-02-13T05:28:26;101721.22;;;-0.96;100.00
8523;BME280;4299;42.202;24.736;2023-02-13T05:31:12;101720.19;;;-1.01;100.00
8523;BME280;4299;42.202;24.736;2023-02-13T05:33:38;101724.41;;;-1.06;100.00
8523;BME280;4299;42.202;24.736;2023-02-13T05:36:06;101727.94;;;-1.04;100.00
8523;BME280;4299;42.202;24.736;2023-02-13T05:38:33;101733.19;;;-1.01;100.00
8523;BME280;4299;42.202;24.736;2023-02-13T05:41:00;101741.94;;;-0.99;100.00
8523;BME280;4299;42.202;24.736;2023-02-13T05:43:28;101736.84;;;-0.96;100.00
8523;BME280;4299;42.202;24.736;2023-02-13T05:46:02;101743.97;;;-0.89;100.00
8523;BME280;4299;42.202;24.736;2023-02-13T05:48:30;101743.97;;;-0.89;100.00
8523;BME280;4299;42.202;24.736;2023-02-13T05:50:58;101743.03;;;-0.91;100.00
8523;BME280;4299;42.202;24.736;2023-02-13T05:53:24;101748.34;;;-0.87;100.00
8523;BME280;4299;42.202;24.736;2023-02-13T05:55:51;101743.19;;;-0.85;100.00
8523;BME280;4299;42.202;24.736;2023-02-13T05:58:18;101745.78;;;-0.85;100.00
8523;BME280;4299;42.202;24.736;2023-02-13T06:00:46;101749.22;;;-0.86;100.00
8523;BME280;4299;42.202;24.736;2023-02-13T06:03:13;101747.66;;;-0.81;100.00
8523;BME280;4299;42.202;24.736;2023-02-13T06:05:43;101751.50;;;-0.67;100.00
8523;BME280;4299;42.202;24.736;2023-02-13T06:08:10;101757.63;;;-0.63;100.00
8523;BME280;4299;42.202;24.736;2023-02-13T06:10:37;101755.75;;;-0.34;100.00
8523;BME280;4299;42.202;24.736;2023-02-13T06:13:04;101761.84;;;0.02;100.00
8523;BME280;4299;42.202;24.736;2023-02-13T06:15:31;101761.63;;;-0.07;100.00
8523;BME280;4299;42.202;24.736;2023-02-13T06:17:58;101752.91;;;-0.09;100.00
8523;BME280;4299;42.202;24.736;2023-02-13T06:20:25;101763.25;;;-0.12;100.00
8523;BME280;4299;42.202;24.736;2023-02-13T06:22:53;101763.34;;;-0.09;100.00
8523;BME280;4299;42.202;24.736;2023-02-13T06:25:20;101769.44;;;-0.07;100.00
8523;BME280;4299;42.202;24.736;2023-02-13T06:27:48;101759.19;;;-0.01;100.00
8523;BME280;4299;42.202;24.736;2023-02-13T06:30:15;101761.09;;;0.06;100.00
8523;BME280;4299;42.202;24.736;2023-02-13T06:32:43;101750.63;;;0.05;100.00
8523;BME280;4299;42.202;24.736;2023-02-13T06:35:11;101750.00;;;0.16;100.00
8523;BME280;4299;42.202;24.736;2023-02-13T06:37:38;101764.16;;;0.27;100.00
8523;BME280;4299;42.202;24.736;2023-02-13T06:40:07;101764.44;;;0.39;100.00
8523;BME280;4299;42.202;24.736;2023-02-13T06:42:34;101763.66;;;0.45;100.00
8523;BME280;4299;42.202;24.736;2023-02-13T06:45:01;101749.91;;;0.51;100.00
8523;BME280;4299;42.202;24.736;2023-02-13T06:47:28;101761.22;;;0.53;100.00
8523;BME280;4299;42.202;24.736;2023-02-13T06:49:55;101767.53;;;0.62;100.00
8523;BME280;4299;42.202;24.736;2023-02-13T06:52:21;101758.00;;;0.66;100.00
8523;BME280;4299;42.202;24.736;2023-02-13T06:54:48;101765.91;;;0.69;100.00
8523;BME280;4299;42.202;24.736;2023-02-13T06:57:16;101764.28;;;0.72;100.00
8523;BME280;4299;42.202;24.736;2023-02-13T06:59:43;101760.03;;;0.79;100.00
8523;BME280;4299;42.202;24.736;2023-02-13T07:02:10;101761.84;;;0.83;100.00
8523;BME280;4299;42.202;24.736;2023-02-13T07:04:37;101749.75;;;0.88;100.00
8523;BME280;4299;42.202;24.736;2023-02-13T07:07:04;101748.13;;;0.93;100.00
8523;BME280;4299;42.202;24.736;2023-02-13T07:09:31;101750.97;;;1.05;100.00
8523;BME280;4299;42.202;24.736;2023-02-13T07:12:01;101751.22;;;1.19;100.00
8523;BME280;4299;42.202;24.736;2023-02-13T07:14:29;101750.59;;;1.31;100.00
8523;BME280;4299;42.202;24.736;2023-02-13T07:16:57;101754.22;;;1.39;100.00
8523;BME280;4299;42.202;24.736;2023-02-13T07:19:24;101749.19;;;1.51;100.00
8523;BME280;4299;42.202;24.736;2023-02-13T07:21:51;101752.81;;;1.59;100.00
8523;BME280;4299;42.202;24.736;2023-02-13T07:24:18;101755.59;;;1.70;100.00
8523;BME280;4299;42.202;24.736;2023-02-13T07:26:44;101750.56;;;1.82;100.00
8523;BME280;4299;42.202;24.736;2023-02-13T07:29:11;101753.31;;;1.89;100.00
8523;BME280;4299;42.202;24.736;2023-02-13T07:31:39;101754.38;;;2.05;100.00
8523;BME280;4299;42.202;24.736;2023-02-13T07:34:06;101754.63;;;2.19;100.00
8523;BME280;4299;42.202;24.736;2023-02-13T07:36:33;101753.91;;;2.32;100.00
8523;BME280;4299;42.202;24.736;2023-02-13T07:39:00;101759.25;;;2.41;100.00
8523;BME280;4299;42.202;24.736;2023-02-13T07:41:27;101750.69;;;2.51;100.00
8523;BME280;4299;42.202;24.736;2023-02-13T07:43:53;101755.16;;;2.60;100.00
8523;BME280;4299;42.202;24.736;2023-02-13T07:46:23;101751.81;;;2.73;100.00
8523;BME280;4299;42.202;24.736;2023-02-13T07:48:52;101755.44;;;2.86;100.00
8523;BME280;4299;42.202;24.736;2023-02-13T07:51:19;101747.69;;;2.95;100.00
8523;BME280;4299;42.202;24.736;2023-02-13T07:53:49;101758.31;;;3.07;100.00
8523;BME280;4299;42.202;24.736;2023-02-13T07:56:16;101753.22;;;3.19;100.00
8523;BME280;4299;42.202;24.736;2023-02-13T07:58:43;101755.94;;;3.28;100.00
8523;BME280;4299;42.202;24.736;2023-02-13T08:01:12;101749.84;;;3.32;100.00
8523;BME280;4299;42.202;24.736;2023-02-13T08:03:39;101745.53;;;3.36;100.00
8523;BME280;4299;42.202;24.736;2023-02-13T08:06:08;101742.97;;;3.46;100.00
8523;BME280;4299;42.202;24.736;2023-02-13T08:08:35;101748.28;;;3.52;100.00
8523;BME280;4299;42.202;24.736;2023-02-13T08:11:04;101746.59;;;3.58;100.00
8523;BME280;4299;42.202;24.736;2023-02-13T08:13:49;101744.94;;;3.69;100.00
8523;BME280;4299;42.202;24.736;2023-02-13T08:16:16;101746.78;;;3.82;100.00
8523;BME280;4299;42.202;24.736;2023-02-13T08:18:42;101736.38;;;3.97;100.00
8523;BME280;4299;42.202;24.736;2023-02-13T08:21:10;101738.22;;;4.10;100.00
8523;BME280;4299;42.202;24.736;2023-02-13T08:23:39;101740.00;;;4.17;100.00
8523;BME280;4299;42.202;24.736;2023-02-13T08:26:06;101737.41;;;4.19;100.00
8523;BME280;4299;42.202;24.736;2023-02-13T08:28:32;101747.06;;;4.24;100.00
8523;BME280;4299;42.202;24.736;2023-02-13T08:30:59;101731.34;;;4.30;100.00
8523;BME280;4299;42.202;24.736;2023-02-13T08:33:26;101732.34;;;4.52;100.00
8523;BME280;4299;42.202;24.736;2023-02-13T08:35:52;101735.00;;;4.69;100.00
8523;BME280;4299;42.202;24.736;2023-02-13T08:38:20;101741.19;;;4.80;100.00
8523;BME280;4299;42.202;24.736;2023-02-13T08:40:48;101742.09;;;4.88;100.00
8523;BME280;4299;42.202;24.736;2023-02-13T08:43:15;101743.84;;;4.86;100.00
8523;BME280;4299;42.202;24.736;2023-02-13T08:45:42;101735.94;;;4.83;100.00
8523;BME280;4299;42.202;24.736;2023-02-13T08:48:08;101741.25;;;4.94;100.00
8523;BME280;4299;42.202;24.736;2023-02-13T08:50:35;101729.84;;;4.99;100.00
8523;BME280;4299;42.202;24.736;2023-02-13T08:53:02;101733.38;;;5.01;100.00
8523;BME280;4299;42.202;24.736;2023-02-13T08:55:30;101732.50;;;5.05;99.95
8523;BME280;4299;42.202;24.736;2023-02-13T08:57:58;101728.16;;;5.17;100.00
8523;BME280;4299;42.202;24.736;2023-02-13T09:00:26;101731.69;;;5.31;98.93
8523;BME280;4299;42.202;24.736;2023-02-13T09:02:53;101729.06;;;5.43;99.32
8523;BME280;4299;42.202;24.736;2023-02-13T09:05:20;101729.94;;;5.51;98.31
8523;BME280;4299;42.202;24.736;2023-02-13T09:07:46;101721.19;;;5.61;97.87
8523;BME280;4299;42.202;24.736;2023-02-13T09:10:13;101724.69;;;5.60;95.81
8523;BME280;4299;42.202;24.736;2023-02-13T09:12:41;101723.78;;;5.73;95.39
8523;BME280;4299;42.202;24.736;2023-02-13T09:15:08;101722.91;;;5.80;94.58
8523;BME280;4299;42.202;24.736;2023-02-13T09:17:35;101718.50;;;5.85;94.84
8523;BME280;4299;42.202;24.736;2023-02-13T09:20:02;101715.94;;;5.92;93.20
8523;BME280;4299;42.202;24.736;2023-02-13T09:22:29;101715.06;;;5.91;92.74
8523;BME280;4299;42.202;24.736;2023-02-13T09:24:55;101719.41;;;6.06;91.53
8523;BME280;4299;42.202;24.736;2023-02-13T09:27:23;101721.16;;;6.13;89.20
8523;BME280;4299;42.202;24.736;2023-02-13T09:29:51;101708.84;;;6.15;88.13
8523;BME280;4299;42.202;24.736;2023-02-13T09:32:18;101701.84;;;6.11;89.17
8523;BME280;4299;42.202;24.736;2023-02-13T09:34:44;101698.34;;;6.12;89.62
8523;BME280;4299;42.202;24.736;2023-02-13T09:37:11;101698.31;;;6.18;88.92
8523;BME280;4299;42.202;24.736;2023-02-13T09:39:38;101684.19;;;6.37;89.77
8523;BME280;4299;42.202;24.736;2023-02-13T09:42:14;101684.09;;;6.58;87.96
8523;BME280;4299;42.202;24.736;2023-02-13T09:44:44;101677.03;;;6.67;87.47
8523;BME280;4299;42.202;24.736;2023-02-13T09:47:16;101670.00;;;6.65;85.71
8523;BME280;4299;42.202;24.736;2023-02-13T09:49:48;101663.84;;;6.70;85.53
8523;BME280;4299;42.202;24.736;2023-02-13T09:52:17;101664.63;;;6.84;83.97
8523;BME280;4299;42.202;24.736;2023-02-13T09:54:43;101664.50;;;7.03;81.25
8523;BME280;4299;42.202;24.736;2023-02-13T09:57:16;101659.13;;;7.17;79.25
8523;BME280;4299;42.202;24.736;2023-02-13T09:59:55;101652.09;;;7.19;77.34
8523;BME280;4299;42.202;24.736;2023-02-13T10:02:37;101652.94;;;7.21;76.22
8523;BME280;4299;42.202;24.736;2023-02-13T10:05:18;101638.78;;;7.33;76.22
8523;BME280;4299;42.202;24.736;2023-02-13T10:07:54;101636.13;;;7.37;75.63
8523;BME280;4299;42.202;24.736;2023-02-13T10:10:30;101635.06;;;7.54;72.87
8523;BME280;4299;42.202;24.736;2023-02-13T10:13:14;101629.69;;;7.66;72.28
8523;BME280;4299;42.202;24.736;2023-02-13T10:15:53;101627.00;;;7.69;70.63
8523;BME280;4299;42.202;24.736;2023-02-13T10:18:27;101619.88;;;7.78;69.82
8523;BME280;4299;42.202;24.736;2023-02-13T10:20:59;101620.59;;;7.94;68.50
8523;BME280;4299;42.202;24.736;2023-02-13T10:23:29;101616.19;;;7.95;64.01
8523;BME280;4299;42.202;24.736;2023-02-13T10:26:01;101612.56;;;8.03;64.27
8523;BME280;4299;42.202;24.736;2023-02-13T10:28:33;101607.22;;;8.06;63.56
8523;BME280;4299;42.202;24.736;2023-02-13T10:31:04;101594.78;;;8.17;62.88
8523;BME280;4299;42.202;24.736;2023-02-13T10:33:39;101599.91;;;8.27;60.82
8523;BME280;4299;42.202;24.736;2023-02-13T10:36:15;101586.75;;;8.25;59.71
8523;BME280;4299;42.202;24.736;2023-02-13T10:38:45;101591.09;;;8.28;59.68
8523;BME280;4299;42.202;24.736;2023-02-13T10:41:31;101576.81;;;8.44;60.39
8523;BME280;4299;42.202;24.736;2023-02-13T10:44:14;101582.09;;;8.47;57.82
8523;BME280;4299;42.202;24.736;2023-02-13T10:46:50;101574.06;;;8.53;56.18
8523;BME280;4299;42.202;24.736;2023-02-13T10:49:32;101573.13;;;8.55;55.93
8523;BME280;4299;42.202;24.736;2023-02-13T10:52:08;101567.91;;;8.51;56.08
8523;BME280;4299;42.202;24.736;2023-02-13T10:57:46;101560.66;;;8.65;53.98
8523;BME280;4299;42.202;24.736;2023-02-13T11:00:24;101558.88;;;8.67;54.28
8523;BME280;4299;42.202;24.736;2023-02-13T11:02:55;101542.94;;;8.70;53.84
8523;BME280;4299;42.202;24.736;2023-02-13T11:05:29;101544.56;;;8.80;53.07
8523;BME280;4299;42.202;24.736;2023-02-13T11:07:56;101533.94;;;8.83;52.34
8523;BME280;4299;42.202;24.736;2023-02-13T11:10:25;101538.16;;;8.92;51.52
8523;BME280;4299;42.202;24.736;2023-02-13T11:12:52;101537.28;;;8.91;51.83
8523;BME280;4299;42.202;24.736;2023-02-13T11:15:22;101527.38;;;9.06;51.38
8523;BME280;4299;42.202;24.736;2023-02-13T11:17:50;101524.50;;;9.18;50.48
8523;BME280;4299;42.202;24.736;2023-02-13T11:20:30;101519.09;;;9.24;49.67
8523;BME280;4299;42.202;24.736;2023-02-13T11:25:56;101505.91;;;9.21;49.18
8523;BME280;4299;42.202;24.736;2023-02-13T11:28:26;101500.56;;;9.24;49.37
8523;BME280;4299;42.202;24.736;2023-02-13T11:31:08;101496.06;;;9.29;49.08
8523;BME280;4299;42.202;24.736;2023-02-13T11:33:36;101495.97;;;9.35;48.57
8523;BME280;4299;42.202;24.736;2023-02-13T11:36:06;101488.81;;;9.40;48.52
8523;BME280;4299;42.202;24.736;2023-02-13T11:38:33;101490.13;;;9.62;48.22
8523;BME280;4299;42.202;24.736;2023-02-13T11:41:07;101484.66;;;9.71;47.00
8523;BME280;4299;42.202;24.736;2023-02-13T11:43:36;101479.13;;;9.81;46.63
8523;BME280;4299;42.202;24.736;2023-02-13T11:46:05;101478.38;;;9.75;45.37
8523;BME280;4299;42.202;24.736;2023-02-13T11:48:33;101470.16;;;9.88;45.92
8523;BME280;4299;42.202;24.736;2023-02-13T11:51:00;101465.00;;;9.82;45.08
8523;BME280;4299;42.202;24.736;2023-02-13T11:53:31;101456.00;;;9.89;44.18
8523;BME280;4299;42.202;24.736;2023-02-13T11:56:06;101453.53;;;9.81;44.95
8523;BME280;4299;42.202;24.736;2023-02-13T11:58:34;101443.91;;;9.79;44.70
8523;BME280;4299;42.202;24.736;2023-02-13T12:01:26;101438.31;;;9.91;44.31
8523;BME280;4299;42.202;24.736;2023-02-13T12:04:01;101440.25;;;9.83;44.54
8523;BME280;4299;42.202;24.736;2023-02-13T12:06:29;101440.41;;;9.76;43.80
8523;BME280;4299;42.202;24.736;2023-02-13T12:09:10;101439.22;;;9.90;44.29
8523;BME280;4299;42.202;24.736;2023-02-13T12:11:43;101425.91;;;9.93;42.73
8523;BME280;4299;42.202;24.736;2023-02-13T12:14:15;101427.63;;;9.94;42.89
8523;BME280;4299;42.202;24.736;2023-02-13T12:16:47;101418.72;;;9.98;42.76
8523;BME280;4299;42.202;24.736;2023-02-13T12:19:18;101422.13;;;10.03;43.54
8523;BME280;4299;42.202;24.736;2023-02-13T12:22:00;101417.34;;;10.20;42.48
8523;BME280;4299;42.202;24.736;2023-02-13T12:27:33;101409.50;;;10.14;42.56
8523;BME280;4299;42.202;24.736;2023-02-13T12:33:27;101407.66;;;10.19;43.80
8523;BME280;4299;42.202;24.736;2023-02-13T12:36:01;101401.13;;;10.32;43.97
8523;BME280;4299;42.202;24.736;2023-02-13T12:38:44;101405.16;;;10.48;43.56
8523;BME280;4299;42.202;24.736;2023-02-13T12:41:19;101401.50;;;10.52;41.94
8523;BME280;4299;42.202;24.736;2023-02-13T12:44:20;101399.78;;;10.51;41.45
8523;BME280;4299;42.202;24.736;2023-02-13T12:46:57;101385.69;;;10.49;40.70
8523;BME280;4299;42.202;24.736;2023-02-13T12:49:52;101378.72;;;10.45;40.83
8523;BME280;4299;42.202;24.736;2023-02-13T12:52:45;101371.59;;;10.47;41.29
8523;BME280;4299;42.202;24.736;2023-02-13T12:55:39;101376.03;;;10.47;41.09
8523;BME280;4299;42.202;24.736;2023-02-13T12:58:25;101379.38;;;10.53;39.93
8523;BME280;4299;42.202;24.736;2023-02-13T13:01:05;101369.63;;;10.56;39.38
8523;BME280;4299;42.202;24.736;2023-02-13T13:03:44;101371.25;;;10.60;39.15
8523;BME280;4299;42.202;24.736;2023-02-13T13:06:24;101369.56;;;10.59;38.97
8523;BME280;4299;42.202;24.736;2023-02-13T13:09:09;101352.63;;;10.63;38.88
8523;BME280;4299;42.202;24.736;2023-02-13T13:11:53;101356.78;;;10.73;38.29
8523;BME280;4299;42.202;24.736;2023-02-13T13:14:34;101355.09;;;10.70;39.08
8523;BME280;4299;42.202;24.736;2023-02-13T13:17:13;101351.38;;;10.76;38.78
8523;BME280;4299;42.202;24.736;2023-02-13T13:19:52;101340.78;;;10.76;39.01
8523;BME280;4299;42.202;24.736;2023-02-13T13:22:27;101342.50;;;10.78;38.96
8523;BME280;4299;42.202;24.736;2023-02-13T13:25:03;101335.31;;;10.82;38.68
8523;BME280;4299;42.202;24.736;2023-02-13T13:27:41;101340.47;;;10.88;38.89
8523;BME280;4299;42.202;24.736;2023-02-13T13:30:17;101331.56;;;10.89;38.49
8523;BME280;4299;42.202;24.736;2023-02-13T13:32:50;101338.72;;;10.87;37.61
8523;BME280;4299;42.202;24.736;2023-02-13T13:35:19;101331.41;;;10.95;37.57
8523;BME280;4299;42.202;24.736;2023-02-13T13:38:14;101329.75;;;10.91;37.69
8523;BME280;4299;42.202;24.736;2023-02-13T13:40:49;101322.50;;;10.96;37.76